Time;durP1;ratioP1;P1;durP2;ratioP2;P2;SDS_P1;SDS_P2;PMS_P1;PMS_P2;Temp;Humidity;BMP_temperature;BMP_pressure;BME280_temperature;BME280_humidity;BME280_pressure;Samples;Min_cycle;Max_cycle;Signal;HPM_P1;HPM_P2
2022/05/05 00:01:37;;;;;;;15.15;8.88;;;;;;;11.17;70.30;101869.22;5094323;28;20052;-65
2022/05/05 00:04:03;;;;;;;15.73;9.27;;;;;;;11.20;70.01;101874.47;5098299;28;20059;-66
2022/05/05 00:06:28;;;;;;;15.18;9.23;;;;;;;11.02;71.38;101874.44;5092401;28;20055;-65
2022/05/05 00:08:54;;;;;;;17.27;9.45;;;;;;;10.95;71.23;101859.59;5098193;28;20027;-65
2022/05/05 00:16:47;;;;;;;16.95;9.55;;;;;;;10.86;71.73;101880.53;5098392;28;20371;-65
2022/05/05 00:19:12;;;;;;;17.38;9.55;;;;;;;10.80;72.11;101876.16;5097968;28;20036;-65
2022/05/05 00:21:38;;;;;;;13.30;9.13;;;;;;;10.70;72.29;101880.50;5098176;28;20028;-66
2022/05/05 00:24:07;;;;;;;15.20;9.40;;;;;;;10.61;73.08;101887.44;5097670;28;20107;-65
2022/05/05 00:26:33;;;;;;;15.45;9.48;;;;;;;10.59;73.23;101876.09;5094854;28;20044;-65
2022/05/05 00:28:58;;;;;;;15.13;10.00;;;;;;;10.42;72.78;101857.72;5097758;28;20032;-66
2022/05/05 00:31:24;;;;;;;15.80;9.65;;;;;;;10.54;73.40;101883.06;5097726;28;20028;-65
2022/05/05 00:33:49;;;;;;;19.27;10.25;;;;;;;10.58;73.42;101882.19;5098004;28;20051;-65
2022/05/05 00:36:15;;;;;;;16.35;10.18;;;;;;;10.50;73.35;101876.06;5097547;28;20059;-66
2022/05/05 00:38:41;;;;;;;13.38;9.07;;;;;;;10.48;73.27;101878.69;5097527;28;20031;-66
2022/05/05 00:41:06;;;;;;;17.17;9.98;;;;;;;10.47;73.28;101879.56;5097533;28;20032;-66
2022/05/05 00:43:33;;;;;;;16.65;9.35;;;;;;;10.45;73.84;101883.91;5097225;28;20036;-65
2022/05/05 00:45:58;;;;;;;16.60;10.25;;;;;;;10.49;74.05;101877.81;5094344;28;20044;-66
2022/05/05 00:48:26;;;;;;;14.95;9.85;;;;;;;10.37;74.17;101869.94;5097372;28;20039;-65
2022/05/05 00:50:51;;;;;;;14.00;9.40;;;;;;;10.38;74.35;101875.16;5097417;28;20098;-67
2022/05/05 00:53:17;;;;;;;17.02;9.98;;;;;;;10.34;74.49;101869.91;5097208;28;20053;-65
2022/05/05 00:55:43;;;;;;;16.17;9.32;;;;;;;10.38;74.72;101874.31;5097781;28;20046;-65
2022/05/05 00:58:09;;;;;;;15.88;9.60;;;;;;;10.24;75.13;101871.59;5097385;28;20032;-66
2022/05/05 01:00:35;;;;;;;17.25;9.93;;;;;;;10.27;75.01;101881.19;5097312;28;20316;-65
2022/05/05 01:03:01;;;;;;;15.70;9.90;;;;;;;10.25;75.44;101870.72;5096981;28;20087;-65
2022/05/05 01:05:28;;;;;;;16.38;10.02;;;;;;;10.23;75.69;101876.81;5097140;28;20081;-66
2022/05/05 01:07:56;;;;;;;17.35;9.68;;;;;;;10.32;75.32;101877.75;5096922;28;20059;-66
2022/05/05 01:10:21;;;;;;;18.35;10.07;;;;;;;10.38;75.05;101879.53;5096502;28;20431;-66
2022/05/05 01:12:47;;;;;;;19.48;9.40;;;;;;;10.37;75.23;101880.41;5096852;28;20039;-65
2022/05/05 01:15:13;;;;;;;15.32;10.30;;;;;;;10.43;74.95;101873.44;5096169;28;20090;-65
2022/05/05 01:17:38;;;;;;;14.90;9.32;;;;;;;10.40;75.16;101876.03;5096987;28;20028;-65
2022/05/05 01:20:18;;;;;;;16.25;10.30;;;;;;;10.44;74.53;101875.16;5078973;28;20047;-65
2022/05/05 01:22:44;;;;;;;17.15;10.30;;;;;;;10.35;75.01;101867.31;5092967;28;20494;-65
2022/05/05 01:28:12;;;;;;;17.23;10.32;;;;;;;10.36;74.98;101869.06;5096928;28;20066;-65
2022/05/05 01:30:38;;;;;;;15.93;10.25;;;;;;;10.30;74.80;101862.91;5096664;28;20036;-65
2022/05/05 01:33:40;;;;;;;16.15;10.32;;;;;;;10.25;74.85;101870.72;5096800;28;20111;-66
2022/05/05 01:36:06;;;;;;;18.50;10.07;;;;;;;10.26;75.13;101877.72;5092308;28;20051;-65
2022/05/05 01:38:44;;;;;;;16.35;9.93;;;;;;;10.31;75.60;101873.38;5096583;28;20038;-66
2022/05/05 01:41:14;;;;;;;17.10;10.60;;;;;;;10.29;75.23;101861.16;5096666;28;20107;-65
2022/05/05 01:43:43;;;;;;;15.57;10.10;;;;;;;10.31;75.17;101868.16;5096291;28;20162;-66
2022/05/05 01:46:08;;;;;;;15.98;9.43;;;;;;;10.33;75.87;101861.19;5096401;28;20074;-65
2022/05/05 01:48:35;;;;;;;16.85;9.75;;;;;;;10.36;76.08;101868.19;5096324;28;20044;-66
2022/05/05 01:51:01;;;;;;;17.02;10.27;;;;;;;10.38;75.62;101867.31;5095930;28;20028;-65
2022/05/05 01:53:27;;;;;;;15.25;10.48;;;;;;;10.39;75.37;101874.28;5095971;28;20028;-66
2022/05/05 01:55:52;;;;;;;17.10;10.05;;;;;;;10.45;75.88;101876.91;5092342;28;20395;-66
2022/05/05 01:58:17;;;;;;;16.55;9.93;;;;;;;10.42;76.29;101878.66;5096339;28;20343;-66
2022/05/05 02:00:43;;;;;;;18.83;9.73;;;;;;;10.47;76.19;101874.31;5095912;28;20047;-65
2022/05/05 02:03:14;;;;;;;15.65;10.43;;;;;;;10.56;76.26;101878.72;5095616;28;20039;-66
2022/05/05 02:05:44;;;;;;;16.40;10.32;;;;;;;10.55;76.58;101880.47;5095978;28;20067;-66
2022/05/05 02:08:10;;;;;;;17.08;10.30;;;;;;;10.56;75.92;101886.56;5096019;28;20050;-65
2022/05/05 02:10:36;;;;;;;15.05;9.40;;;;;;;10.51;75.98;101872.59;5095822;28;20063;-65
2022/05/05 02:13:02;;;;;;;13.48;9.38;;;;;;;10.54;76.32;101878.72;5096263;28;20070;-66
2022/05/05 02:15:28;;;;;;;15.45;9.93;;;;;;;10.55;76.30;101874.34;5095650;28;20046;-66
2022/05/05 02:17:53;;;;;;;14.85;9.48;;;;;;;10.59;76.06;101871.72;5095631;28;20027;-65
2022/05/05 02:20:19;;;;;;;18.58;9.77;;;;;;;10.53;75.60;101861.25;5095774;28;20028;-65
2022/05/05 02:22:44;;;;;;;15.90;9.98;;;;;;;10.69;76.15;101881.38;5096071;28;20024;-65
2022/05/05 02:25:09;;;;;;;16.92;9.70;;;;;;;10.73;76.24;101871.78;5095599;28;20139;-65
2022/05/05 02:27:51;;;;;;;16.60;9.68;;;;;;;10.78;75.81;101881.38;5095444;28;20044;-65
2022/05/05 02:30:18;;;;;;;14.43;9.23;;;;;;;10.77;76.27;101882.25;5092480;28;20062;-65
2022/05/05 02:32:43;;;;;;;17.70;9.50;;;;;;;10.81;76.48;101878.78;5095521;28;20067;-66
2022/05/05 02:35:09;;;;;;;14.23;9.48;;;;;;;10.84;76.29;101882.28;5095711;28;20427;-66
2022/05/05 02:40:19;;;;;;;15.32;9.35;;;;;;;10.88;76.71;101876.19;5095376;28;20464;-65
2022/05/05 02:42:44;;;;;;;15.73;9.98;;;;;;;10.88;77.06;101878.81;5095765;28;20111;-65
2022/05/05 02:45:09;;;;;;;14.45;9.32;;;;;;;10.82;76.45;101879.66;5095289;28;20438;-66
2022/05/05 02:47:35;;;;;;;16.70;9.70;;;;;;;10.74;76.60;101871.75;5095579;28;20182;-66
2022/05/05 02:50:00;;;;;;;12.77;8.88;;;;;;;10.84;76.79;101877.03;5095383;28;20028;-66
2022/05/05 02:52:25;;;;;;;15.60;9.38;;;;;;;10.80;76.79;101873.53;5095145;28;20035;-65
2022/05/05 02:54:51;;;;;;;15.05;9.85;;;;;;;10.73;76.61;101877.91;5095563;28;20042;-66
2022/05/05 02:57:22;;;;;;;14.73;9.60;;;;;;;10.60;77.35;101886.56;5095338;28;20024;-65
2022/05/05 02:59:48;;;;;;;15.93;10.05;;;;;;;10.58;77.75;101879.56;5095347;28;20032;-64
2022/05/05 03:02:14;;;;;;;15.95;10.27;;;;;;;10.56;77.49;101883.97;5095264;28;20042;-66
2022/05/05 03:04:39;;;;;;;18.80;10.40;;;;;;;10.45;78.15;101881.28;5095160;28;20447;-65
2022/05/05 03:07:05;;;;;;;16.42;10.00;;;;;;;10.43;78.20;101883.00;5095222;28;20470;-65
2022/05/05 03:09:30;;;;;;;16.65;10.13;;;;;;;10.44;78.56;101882.16;5095116;28;20042;-65
2022/05/05 03:11:55;;;;;;;15.27;10.75;;;;;;;10.49;78.54;101874.31;5095036;28;20038;-65
2022/05/05 03:14:21;;;;;;;16.40;10.15;;;;;;;10.41;78.73;101871.66;5095045;28;20368;-66
2022/05/05 03:16:46;;;;;;;16.15;10.20;;;;;;;10.44;78.70;101877.78;5094792;28;20103;-65
2022/05/05 03:19:11;;;;;;;15.60;9.80;;;;;;;10.42;78.54;101873.41;5095433;28;20036;-65
2022/05/05 03:21:37;;;;;;;17.55;10.65;;;;;;;10.35;78.88;101875.16;5094795;28;20560;-66
2022/05/05 03:24:03;;;;;;;16.90;10.43;;;;;;;10.42;78.63;101883.88;5094832;28;20467;-66
2022/05/05 03:26:29;;;;;;;15.43;10.30;;;;;;;10.47;79.11;101882.16;5094710;28;20035;-66
2022/05/05 03:28:54;;;;;;;15.57;9.85;;;;;;;10.43;79.28;101867.31;5095073;28;20111;-65
2022/05/05 03:31:19;;;;;;;16.13;10.07;;;;;;;10.41;79.41;101877.78;5094670;28;20024;-65
2022/05/05 03:33:44;;;;;;;15.35;10.10;;;;;;;10.46;79.49;101880.41;5095144;28;20062;-65
2022/05/05 03:36:10;;;;;;;17.75;10.38;;;;;;;10.42;79.24;101882.13;5095015;28;20083;-65
2022/05/05 03:38:35;;;;;;;18.25;10.77;;;;;;;10.36;79.24;101879.53;5098347;28;20032;-66
2022/05/05 03:41:01;;;;;;;17.17;10.52;;;;;;;10.37;79.30;101890.88;5098724;28;20067;-65
2022/05/05 03:43:26;;;;;;;17.45;10.40;;;;;;;10.31;80.10;101888.22;5098469;28;20031;-65
2022/05/05 03:45:51;;;;;;;17.30;10.60;;;;;;;10.30;80.68;101889.06;5098838;28;20382;-65
2022/05/05 03:48:17;;;;;;;14.10;9.52;;;;;;;10.32;80.43;101893.44;5098596;28;20032;-65
2022/05/05 03:50:42;;;;;;;16.85;10.98;;;;;;;10.25;80.63;101898.63;5098346;28;20020;-65
2022/05/05 03:53:07;;;;;;;19.38;10.50;;;;;;;10.29;80.53;101898.66;5098867;28;20466;-65
2022/05/05 03:55:32;;;;;;;19.77;10.35;;;;;;;10.32;80.40;101890.84;5098577;28;20104;-65
2022/05/05 03:57:58;;;;;;;19.90;11.13;;;;;;;10.37;80.70;101901.31;5098642;28;20047;-66
2022/05/05 04:00:23;;;;;;;17.50;11.27;;;;;;;10.39;80.18;101902.22;5098273;28;20460;-65
2022/05/05 04:03:30;;;;;;;17.45;10.85;;;;;;;10.41;80.00;101897.84;5098293;28;20069;-66
2022/05/05 04:05:35;;;;;;;16.77;10.73;;;;;;;10.39;80.30;101910.06;5097695;28;20461;-66
2022/05/05 04:08:02;;;;;;;17.80;11.30;;;;;;;10.37;80.47;101906.56;5098031;28;20028;-65
2022/05/05 04:10:28;;;;;;;18.98;10.85;;;;;;;10.37;80.91;101907.44;5097938;28;20039;-65
2022/05/05 04:12:54;;;;;;;18.05;11.20;;;;;;;10.48;80.81;101903.97;5098351;28;20029;-65
2022/05/05 04:15:19;;;;;;;17.92;10.70;;;;;;;10.49;79.86;101910.97;5098043;28;20077;-66
2022/05/05 04:17:44;;;;;;;20.10;10.85;;;;;;;10.40;80.31;101917.00;5097981;28;20373;-65
2022/05/05 04:20:10;;;;;;;17.30;10.80;;;;;;;10.36;80.90;101913.53;5097751;28;20055;-65
2022/05/05 04:22:36;;;;;;;19.05;11.02;;;;;;;10.35;81.01;101910.91;5097974;28;20432;-66
2022/05/05 04:25:01;;;;;;;21.60;10.98;;;;;;;10.44;80.89;101910.94;5097720;28;20435;-66
2022/05/05 04:27:26;;;;;;;20.05;11.02;;;;;;;10.54;80.76;101915.34;5097375;28;20054;-66
2022/05/05 04:29:52;;;;;;;18.58;11.10;;;;;;;10.62;80.34;101912.75;5097817;28;20036;-66
2022/05/05 04:32:17;;;;;;;16.88;10.65;;;;;;;10.60;80.19;101920.59;5097604;28;20028;-66
2022/05/05 04:34:42;;;;;;;15.40;10.25;;;;;;;10.48;80.63;101923.16;5098132;28;20028;-66
2022/05/05 04:37:07;;;;;;;17.25;10.88;;;;;;;10.42;81.10;101928.38;5100270;28;20043;-58
2022/05/05 04:39:33;;;;;;;18.70;10.90;;;;;;;10.38;81.35;101931.84;5115065;28;20114;-66
2022/05/05 04:41:58;;;;;;;18.58;11.05;;;;;;;10.35;81.12;101924.00;5118090;28;20453;-67
2022/05/05 04:44:23;;;;;;;20.25;10.70;;;;;;;10.41;81.13;101931.84;5117867;28;20019;-66
2022/05/05 04:46:49;;;;;;;16.45;11.07;;;;;;;10.36;81.17;101921.38;5117868;28;20028;-64
2022/05/05 04:49:14;;;;;;;18.77;11.30;;;;;;;10.45;81.49;101931.88;5116509;28;20047;-64
2022/05/05 04:51:39;;;;;;;19.98;11.35;;;;;;;10.50;81.67;101934.53;5117745;28;20059;-65
2022/05/05 04:54:04;;;;;;;17.92;10.82;;;;;;;10.57;80.86;101941.50;5118184;28;20032;-65
2022/05/05 04:56:30;;;;;;;18.75;11.20;;;;;;;10.66;80.82;101938.06;5114875;28;20047;-65
2022/05/05 04:58:55;;;;;;;18.23;10.77;;;;;;;10.65;80.38;101934.59;5117734;28;20431;-65
2022/05/05 05:01:20;;;;;;;16.80;11.25;;;;;;;10.61;80.36;101942.41;5117949;28;20027;-65
2022/05/05 05:03:45;;;;;;;17.88;11.20;;;;;;;10.43;80.76;101931.00;5117704;28;20096;-64
2022/05/05 05:06:11;;;;;;;24.33;12.35;;;;;;;10.48;81.08;101945.84;5117526;28;20122;-65
2022/05/05 05:08:37;;;;;;;19.42;11.32;;;;;;;10.46;81.73;101948.44;5117485;28;20027;-64
2022/05/05 05:11:02;;;;;;;20.30;11.73;;;;;;;10.47;81.91;101950.22;5117440;28;20042;-64
2022/05/05 05:13:28;;;;;;;19.63;11.98;;;;;;;10.53;81.66;101952.00;5117511;28;20031;-65
2022/05/05 05:15:53;;;;;;;20.02;12.35;;;;;;;10.54;81.76;101949.38;5117282;28;20074;-66
2022/05/05 05:18:19;;;;;;;21.00;11.55;;;;;;;10.65;81.50;101959.88;5116643;28;20024;-66
2022/05/05 05:20:44;;;;;;;22.60;12.23;;;;;;;10.65;80.89;101942.44;5117094;28;20046;-65
2022/05/05 05:23:09;;;;;;;18.67;11.63;;;;;;;10.79;80.70;101960.81;5117203;28;20161;-64
2022/05/05 05:25:35;;;;;;;18.90;11.23;;;;;;;10.78;80.98;101965.16;5117212;28;20712;-64
2022/05/05 05:28:00;;;;;;;22.73;12.52;;;;;;;10.82;80.98;101963.44;5116942;28;20052;-65
2022/05/05 05:30:26;;;;;;;20.05;11.73;;;;;;;10.85;81.15;101957.34;5117120;28;20028;-65
2022/05/05 05:32:51;;;;;;;18.13;12.25;;;;;;;10.87;80.76;101961.72;5113094;28;20039;-64
2022/05/05 05:35:16;;;;;;;21.85;12.52;;;;;;;10.87;81.00;101966.97;5116675;28;20059;-58
2022/05/05 05:37:42;;;;;;;21.70;12.20;;;;;;;10.68;81.39;101950.31;5113579;28;20051;-66
2022/05/05 05:40:08;;;;;;;21.75;11.80;;;;;;;10.80;81.18;101971.28;5116725;28;20403;-67
2022/05/05 05:42:33;;;;;;;21.45;12.40;;;;;;;10.78;81.12;101967.78;5116713;28;20031;-67
2022/05/05 05:44:58;;;;;;;23.27;12.40;;;;;;;10.73;81.19;101969.53;5116663;28;20035;-65
2022/05/05 05:47:24;;;;;;;22.20;12.50;;;;;;;10.72;81.38;101967.78;5116687;28;20031;-67
2022/05/05 05:49:49;;;;;;;24.13;12.52;;;;;;;10.73;81.06;101972.16;5108530;28;20036;-68
2022/05/05 05:52:14;;;;;;;27.25;13.10;;;;;;;10.80;81.41;101973.03;5095674;28;20032;-65
2022/05/05 05:54:40;;;;;;;23.98;13.77;;;;;;;10.94;81.11;101980.94;5096317;28;20036;-64
2022/05/05 05:57:05;;;;;;;21.23;13.65;;;;;;;10.95;80.51;101967.84;5096022;28;20032;-66
2022/05/05 05:59:30;;;;;;;29.83;13.85;;;;;;;11.10;80.04;101978.34;5095973;28;20121;-66
2022/05/05 06:04:40;;;;;;;29.27;14.27;;;;;;;11.30;78.70;101982.78;5095734;28;20113;-67
2022/05/05 06:07:05;;;;;;;24.65;13.32;;;;;;;11.35;78.71;101981.03;5095939;28;20032;-68
2022/05/05 06:09:30;;;;;;;27.23;14.43;;;;;;;11.39;79.04;101983.69;5095917;28;20498;-65
2022/05/05 06:11:55;;;;;;;25.45;13.02;;;;;;;11.49;78.58;101985.44;5095759;28;20028;-67
2022/05/05 06:14:21;;;;;;;25.92;13.77;;;;;;;11.53;78.37;101983.69;5095863;28;20028;-68
2022/05/05 06:16:46;;;;;;;26.63;13.65;;;;;;;11.57;77.77;101987.19;5095865;28;20028;-67
2022/05/05 06:19:11;;;;;;;27.27;13.85;;;;;;;11.68;77.34;101996.81;5095341;28;20028;-67
2022/05/05 06:21:36;;;;;;;22.20;13.45;;;;;;;11.74;77.19;101995.94;5095817;28;20457;-69
2022/05/05 06:24:03;;;;;;;25.30;14.32;;;;;;;11.67;77.01;101984.56;5095808;28;20101;-68
2022/05/05 06:26:28;;;;;;;29.33;14.73;;;;;;;11.68;77.07;101994.19;5095572;28;20039;-66
2022/05/05 06:28:57;;;;;;;30.27;14.57;;;;;;;11.75;77.07;101997.69;5095391;28;20032;-64
2022/05/05 06:31:23;;;;;;;30.45;14.73;;;;;;;11.79;76.78;101987.22;5106377;28;20151;-66
2022/05/05 06:33:49;;;;;;;27.48;14.15;;;;;;;11.92;76.50;101990.72;5107811;28;20506;-64
2022/05/05 06:36:16;;;;;;;29.50;14.63;;;;;;;12.02;75.83;101991.59;5095237;28;20347;-66
2022/05/05 06:38:41;;;;;;;29.58;14.27;;;;;;;12.11;75.52;102002.09;5095646;28;20446;-66
2022/05/05 06:41:08;;;;;;;29.42;14.30;;;;;;;12.23;74.88;101999.44;5094802;28;20032;-63
2022/05/05 06:43:36;;;;;;;27.73;14.20;;;;;;;12.35;73.71;101996.78;5095229;28;20032;-63
2022/05/05 06:46:01;;;;;;;31.05;14.05;;;;;;;12.44;73.34;101994.16;5102577;28;20040;-65
2022/05/05 06:48:27;;;;;;;29.02;14.57;;;;;;;12.55;72.80;101994.97;5112317;28;20328;-64
2022/05/05 06:50:52;;;;;;;23.30;13.23;;;;;;;12.69;71.78;102001.94;5109192;28;20119;-65
2022/05/05 06:53:17;;;;;;;26.60;14.70;;;;;;;12.83;70.84;102006.25;5115486;28;20031;-65
2022/05/05 06:55:42;;;;;;;29.65;15.40;;;;;;;13.15;70.33;102006.16;5115564;28;20050;-65
2022/05/05 06:58:08;;;;;;;27.10;15.65;;;;;;;14.05;66.71;102000.19;5112114;28;20454;-66
2022/05/05 07:03:17;;;;;;;37.53;20.48;;;;;;;14.45;64.42;101998.06;5113609;28;20470;-66
2022/05/05 07:05:42;;;;;;;37.22;20.85;;;;;;;14.45;64.97;102003.34;5113858;28;20114;-65
2022/05/05 07:08:07;;;;;;;40.40;22.45;;;;;;;14.44;65.61;102001.59;5113708;28;20032;-66
2022/05/05 07:13:17;;;;;;;49.08;26.65;;;;;;;14.42;64.86;102013.91;5116328;28;20105;-66
2022/05/05 07:15:43;;;;;;;46.63;26.42;;;;;;;14.39;65.34;102018.28;5117865;28;20027;-66
2022/05/05 07:18:09;;;;;;;45.50;25.77;;;;;;;14.40;65.90;102020.03;5111258;28;20042;-66
2022/05/05 07:20:34;;;;;;;47.85;27.25;;;;;;;14.43;65.63;102017.41;5109115;28;20110;-65
2022/05/05 07:22:59;;;;;;;48.08;27.92;;;;;;;14.55;66.02;102022.53;5117947;28;20031;-66
2022/05/05 07:25:25;;;;;;;51.90;29.45;;;;;;;14.65;65.58;102016.31;5117549;28;20066;-66
2022/05/05 07:27:51;;;;;;;48.47;28.30;;;;;;;14.82;65.46;102027.50;5117585;28;20054;-68
2022/05/05 07:30:16;;;;;;;48.40;29.25;;;;;;;15.04;65.42;102032.53;5117464;28;20089;-69
2022/05/05 07:32:42;;;;;;;47.47;26.98;;;;;;;15.16;64.97;102032.34;5117697;28;20422;-68
2022/05/05 07:35:09;;;;;;;43.95;26.00;;;;;;;15.32;64.90;102029.50;5117759;28;20354;-67
2022/05/05 07:37:36;;;;;;;51.40;28.48;;;;;;;15.37;63.85;102034.72;5117680;28;20050;-65
2022/05/05 07:40:02;;;;;;;50.10;28.77;;;;;;;15.54;64.38;102035.34;5117552;28;20036;-65
2022/05/05 07:42:27;;;;;;;51.50;28.33;;;;;;;15.55;63.85;102025.66;5114600;28;20035;-65
2022/05/05 07:44:53;;;;;;;50.97;29.38;;;;;;;15.47;64.01;102038.94;5096780;28;20024;-65
2022/05/05 07:47:18;;;;;;;47.13;28.75;;;;;;;15.51;63.76;102037.13;5097069;28;20043;-67
2022/05/05 07:49:43;;;;;;;43.67;28.13;;;;;;;15.73;63.98;102038.59;5094422;28;20520;-66
2022/05/05 07:52:08;;;;;;;49.50;29.13;;;;;;;16.05;63.38;102030.16;5098372;28;20054;-68
2022/05/05 07:54:43;;;;;;;53.00;31.88;;;;;;;16.17;62.01;102026.41;5098480;28;20028;-65
2022/05/05 07:57:11;;;;;;;52.72;31.95;;;;;;;16.27;61.62;102023.59;5098285;28;20059;-64
2022/05/05 07:59:38;;;;;;;47.65;29.48;;;;;;;16.56;61.38;102043.31;5098391;28;20071;-63
2022/05/05 08:02:04;;;;;;;45.53;28.23;;;;;;;16.70;59.92;102039.53;5098404;28;20362;-63
2022/05/05 08:04:30;;;;;;;50.53;29.35;;;;;;;16.82;59.04;102046.34;5098438;28;20028;-63
2022/05/05 08:06:56;;;;;;;43.80;27.60;;;;;;;16.74;59.47;102047.41;5098578;28;20134;-64
2022/05/05 08:09:21;;;;;;;45.92;27.35;;;;;;;16.84;58.82;102041.91;5098291;28;20110;-65
2022/05/05 08:11:47;;;;;;;45.53;26.92;;;;;;;17.00;58.40;102037.16;5098089;28;20028;-62
2022/05/05 08:14:12;;;;;;;44.92;27.77;;;;;;;17.07;58.50;102038.78;5098089;28;20370;-65
2022/05/05 08:16:37;;;;;;;40.38;25.58;;;;;;;17.05;58.04;102041.47;5098258;28;20033;-67
2022/05/05 08:19:02;;;;;;;37.85;25.23;;;;;;;17.10;57.73;102051.06;5098054;28;20123;-63
2022/05/05 08:21:28;;;;;;;45.00;27.83;;;;;;;17.14;57.84;102051.00;5098243;28;20334;-59
2022/05/05 08:29:22;;;;;;;47.15;29.30;;;;;;;16.92;58.25;102054.97;5097837;28;20034;-61
2022/05/05 08:31:47;;;;;;;48.78;29.85;;;;;;;16.74;59.07;102050.94;5097682;28;20415;-60
2022/05/05 08:34:13;;;;;;;50.95;31.33;;;;;;;16.80;59.49;102060.47;5097690;28;20038;-68
2022/05/05 08:36:38;;;;;;;52.80;32.63;;;;;;;16.50;60.50;102051.34;5097194;28;20028;-65
2022/05/05 08:39:03;;;;;;;55.63;33.90;;;;;;;16.36;60.93;102062.19;5097639;28;20032;-67
2022/05/05 08:41:30;;;;;;;58.20;34.50;;;;;;;16.12;61.79;102071.38;5097590;28;20032;-66
2022/05/05 08:43:55;;;;;;;55.33;33.38;;;;;;;15.92;62.15;102066.47;5097676;28;20032;-65
2022/05/05 08:46:23;;;;;;;55.20;33.05;;;;;;;15.83;62.63;102068.34;5097553;28;20036;-67
2022/05/05 08:48:50;;;;;;;54.13;32.97;;;;;;;15.78;63.27;102073.69;5097556;28;20066;-66
2022/05/05 08:51:18;;;;;;;55.95;33.92;;;;;;;15.69;62.78;102072.97;5097049;28;20032;-66
2022/05/05 08:53:52;;;;;;;57.17;33.95;;;;;;;15.58;63.89;102078.41;5097212;28;20039;-65
2022/05/05 08:56:17;;;;;;;55.00;34.03;;;;;;;15.52;63.72;102079.34;5097145;28;20470;-66
2022/05/05 08:58:43;;;;;;;55.70;32.80;;;;;;;15.50;64.21;102078.47;5097174;28;20063;-66
2022/05/05 09:01:08;;;;;;;53.42;33.70;;;;;;;15.52;64.14;102076.69;5097286;28;20118;-65
2022/05/05 09:03:33;;;;;;;53.53;32.77;;;;;;;15.57;63.79;102074.91;5096943;28;20354;-66
2022/05/05 09:06:00;;;;;;;49.58;31.55;;;;;;;15.75;63.62;102078.16;5097530;28;20340;-66
2022/05/05 09:08:25;;;;;;;54.17;32.85;;;;;;;15.97;63.73;102085.72;5096810;28;20043;-66
2022/05/05 09:10:52;;;;;;;52.45;31.33;;;;;;;16.18;62.82;102087.13;5097292;28;20028;-66
2022/05/05 09:13:22;;;;;;;53.00;32.45;;;;;;;16.41;62.27;102081.47;5097047;28;20047;-66
2022/05/05 09:15:47;;;;;;;55.08;32.92;;;;;;;16.60;61.29;102085.53;5096885;28;20440;-66
2022/05/05 09:18:18;;;;;;;55.15;31.98;;;;;;;16.78;61.36;102086.97;5096646;28;20043;-66
2022/05/05 09:20:45;;;;;;;50.75;31.15;;;;;;;16.84;60.28;102072.75;5096637;28;20035;-66
2022/05/05 09:23:34;;;;;;;50.72;30.98;;;;;;;17.04;60.55;102086.44;5096813;28;20036;-66
2022/05/05 09:26:01;;;;;;;52.22;32.13;;;;;;;17.12;58.21;102092.47;5096586;28;20028;-66
2022/05/05 09:28:31;;;;;;;50.97;29.40;;;;;;;17.18;57.94;102092.31;5096593;28;20048;-66
2022/05/05 09:31:07;;;;;;;48.10;30.40;;;;;;;17.27;58.12;102092.16;5096067;28;20459;-66
2022/05/05 09:33:43;;;;;;;43.90;29.25;;;;;;;17.53;58.21;102101.28;5096297;28;20048;-66
2022/05/05 09:36:13;;;;;;;50.40;30.20;;;;;;;17.64;57.12;102099.31;5096018;28;20032;-66
2022/05/05 09:39:00;;;;;;;48.30;30.23;;;;;;;17.81;58.02;102102.44;5096574;28;20040;-66
2022/05/05 09:41:32;;;;;;;45.85;30.08;;;;;;;17.94;57.01;102092.44;5096183;28;20056;-66
2022/05/05 09:44:16;;;;;;;49.72;32.33;;;;;;;18.15;56.86;102102.50;5096018;28;20424;-66
2022/05/05 09:46:44;;;;;;;50.72;30.90;;;;;;;18.12;56.46;102099.06;5096135;28;20035;-66
2022/05/05 09:49:09;;;;;;;54.35;32.03;;;;;;;18.30;55.83;102102.13;5093179;28;20040;-66
2022/05/05 09:57:41;;;;;;;49.47;31.77;;;;;;;17.97;56.39;102105.59;5096249;28;20109;-59
2022/05/05 10:00:23;;;;;;;48.08;31.33;;;;;;;18.07;56.43;102097.38;5096056;28;20089;-68
2022/05/05 10:05:35;;;;;;;49.03;30.63;;;;;;;18.06;55.81;102110.66;5096078;28;20251;-68
2022/05/05 10:08:01;;;;;;;49.95;30.35;;;;;;;18.22;54.62;102098.78;5095939;28;20032;-69
2022/05/05 10:10:27;;;;;;;50.53;32.17;;;;;;;18.35;54.73;102115.25;5095622;28;20028;-68
2022/05/05 10:12:57;;;;;;;46.08;31.58;;;;;;;18.35;54.58;102104.66;5095954;28;20329;-68
2022/05/05 10:15:23;;;;;;;48.55;32.30;;;;;;;18.38;54.04;102108.09;5095714;28;20106;-69
2022/05/05 10:17:49;;;;;;;50.17;33.05;;;;;;;18.36;54.49;102114.31;5095800;28;20074;-68
2022/05/05 10:20:14;;;;;;;48.58;33.05;;;;;;;18.18;53.88;102098.91;5095614;28;20435;-69
2022/05/05 10:23:06;;;;;;;47.35;31.83;;;;;;;18.39;54.76;102093.03;5095308;28;20031;-68
2022/05/05 10:25:37;;;;;;;51.25;34.72;;;;;;;18.74;54.14;102100.97;5095568;28;20043;-69
2022/05/05 10:28:03;;;;;;;48.90;32.08;;;;;;;18.80;53.60;102105.25;5095824;28;20055;-68
2022/05/05 10:30:34;;;;;;;50.00;33.92;;;;;;;19.00;53.24;102110.88;5095410;28;20115;-69
2022/05/05 10:33:00;;;;;;;47.72;31.98;;;;;;;19.08;53.46;102102.69;5095653;28;20067;-69
2022/05/05 10:35:26;;;;;;;45.45;30.88;;;;;;;19.18;52.15;102100.66;5095422;28;20455;-69
2022/05/05 10:37:51;;;;;;;46.10;31.55;;;;;;;19.16;51.81;102098.03;5095307;28;20056;-68
2022/05/05 10:40:17;;;;;;;51.47;32.88;;;;;;;19.02;51.58;102103.75;5095433;28;20063;-69
2022/05/05 10:42:45;;;;;;;46.53;31.13;;;;;;;19.05;51.57;102110.72;5095352;28;20407;-69
2022/05/05 10:45:12;;;;;;;42.53;30.52;;;;;;;19.04;51.29;102101.94;5095423;28;20103;-69
2022/05/05 10:47:51;;;;;;;41.15;29.30;;;;;;;19.26;52.05;102110.13;5095068;28;20411;-68
2022/05/05 10:50:28;;;;;;;42.75;29.20;;;;;;;19.44;51.18;102103.38;5095142;28;20028;-68
2022/05/05 10:52:53;;;;;;;43.80;31.38;;;;;;;19.35;49.89;102096.59;5095315;28;20177;-68
2022/05/05 10:55:31;;;;;;;43.60;30.90;;;;;;;19.31;50.71;102099.38;5095173;28;20072;-68
2022/05/05 10:57:56;;;;;;;42.10;30.15;;;;;;;19.37;51.61;102096.53;5095253;28;20451;-69
2022/05/05 11:00:22;;;;;;;43.35;30.70;;;;;;;19.36;49.50;102105.41;5095129;28;20050;-69
2022/05/05 11:03:03;;;;;;;48.28;31.45;;;;;;;19.58;50.11;102105.66;5095323;28;20478;-68
2022/05/05 11:05:40;;;;;;;46.60;32.00;;;;;;;19.52;50.22;102097.91;5095117;28;20101;-68
2022/05/05 11:08:08;;;;;;;45.83;30.70;;;;;;;19.39;50.08;102108.00;5094852;28;20466;-68
2022/05/05 11:10:42;;;;;;;47.50;31.88;;;;;;;19.58;50.36;102106.53;5095015;28;20028;-68
2022/05/05 11:13:46;;;;;;;47.83;31.02;;;;;;;19.65;50.68;102109.88;5094508;28;20036;-68
2022/05/05 11:22:17;;;;;;;44.30;32.05;;;;;;;19.88;48.57;102101.19;5095299;28;20128;-69
2022/05/05 11:24:45;;;;;;;46.10;31.50;;;;;;;19.88;48.87;102095.88;5077350;28;20036;-69
2022/05/05 11:27:12;;;;;;;42.22;30.90;;;;;;;19.99;48.32;102096.38;5094638;28;20062;-68
2022/05/05 11:29:38;;;;;;;41.22;30.40;;;;;;;19.78;48.21;102088.19;5095175;28;20123;-68
2022/05/05 11:32:06;;;;;;;46.55;31.17;;;;;;;20.06;49.06;102095.28;5094760;28;20421;-69
2022/05/05 11:34:34;;;;;;;42.67;29.23;;;;;;;20.33;48.04;102099.66;5094987;28;20050;-69
2022/05/05 11:37:01;;;;;;;39.70;27.00;;;;;;;20.43;47.67;102085.16;5094797;28;20028;-68
2022/05/05 11:39:28;;;;;;;40.00;28.17;;;;;;;20.66;46.24;102099.44;5094757;28;20430;-69
2022/05/05 11:42:07;;;;;;;39.35;29.20;;;;;;;20.70;47.76;102095.75;5094783;28;20034;-69
2022/05/05 11:44:46;;;;;;;38.75;28.13;;;;;;;20.64;47.27;102096.84;5094831;28;20346;-69
2022/05/05 11:47:21;;;;;;;40.42;28.70;;;;;;;20.64;47.32;102094.16;5094840;28;20405;-69
2022/05/05 11:49:52;;;;;;;38.60;28.27;;;;;;;20.40;46.52;102092.38;5094743;28;20028;-68
2022/05/05 11:52:23;;;;;;;40.93;27.57;;;;;;;20.40;47.22;102082.63;5094593;28;20024;-67